KRBD/RBD METAR and TAF weather

Enter ICAO airport designator
Station Type Date Time Source
KRBD METAR 2020/01/23 17:53 UTC NOAA

KRBD 231753Z 33011KT 10SM OVC015 09/06 A3006 RMK AO2 SLP179 60000 T00940056 10094 20078 50019


Station Type Date Time Source
KRBD Decoded METAR 2020/01/23 17:53 UTC NOAA

DALLAS EXECUTIVE AIRPORT, TX, United States (KRBD) 32-41N 096-52W 203M
Jan 23, 2020 - 12:53 PM EST / 2020.01.23 1753 UTC
Wind: from the NNW (330 degrees) at 13 MPH (11 KT):0
Visibility: 10 mile(s):0
Sky conditions: overcast
Temperature: 48.9 F (9.4 C)
Dew Point: 42.1 F (5.6 C)
Relative Humidity: 77%
Pressure (altimeter): 30.06 in. Hg (1017 hPa)
Pressure tendency: 0.06 inches (1.9 hPa) higher than three hours ago
ob: KRBD 231753Z 33011KT 10SM OVC015 09/06 A3006 RMK AO2 SLP179 60000 T00940056 10094 20078 50019
cycle: 18

Station Type Date Time Source
KRBD TAF UTC NOAA

Error!

Example: see airport list